Terminal Aerodrome Forecast
Issued by NWS

Home | Current Version | Previous Version | Text Only | Print | Product List | Glossary On
Versions: 1 2 3 4 5 6 7 8 9 10 11 12 13 14 15 16 17 18 19 20 21
997
FTUS43 KILX 251917 AAB
TAFDEC
TAF AMD
KDEC 251917Z 2519/2618 24010G17KT P6SM VCSH SCT050 BKN110
      TEMPO 2519/2522 BKN050
     FM252200 24011G17KT P6SM SHRA VCTS SCT040CB BKN090
     FM260300 29010KT P6SM -SHRA SCT040 OVC100
     FM261100 30008KT P6SM BKN120
     FM261500 28013G18KT P6SM SCT050=

USA.gov is the U.S. government's official web portal to all federal, state and local government web resources and services.